Time;durP1;ratioP1;P1;durP2;ratioP2;P2;SDS_P1;SDS_P2;PMS_P1;PMS_P2;Temp;Humidity;BMP_temperature;BMP_pressure;BME280_temperature;BME280_humidity;BME280_pressure;Samples;Min_cycle;Max_cycle;Signal;HPM_P1;HPM_P2
2023/06/18 00:02:02;;;;;;;8.27;5.93;;;;;;;;;;5121090;28;20258;-64
2023/06/18 00:04:47;;;;;;;7.43;5.83;;;;;;;;;;5123182;27;20213;-66
2023/06/18 00:07:16;;;;;;;8.47;6.53;;;;;;;;;;5118987;28;20757;-64
2023/06/18 00:10:03;;;;;;;6.73;6.13;;;;;;;;;;5121331;28;20678;-65
2023/06/18 00:12:31;;;;;;;8.60;6.40;;;;;;;;;;5122522;27;20566;-64
2023/06/18 00:15:01;;;;;;;6.53;5.70;;;;;;;;;;5123359;27;20611;-64
2023/06/18 00:17:47;;;;;;;6.10;5.03;;;;;;;;;;5123129;27;20698;-64
2023/06/18 00:20:16;;;;;;;6.40;5.80;;;;;;;;;;5119151;28;20223;-65
2023/06/18 00:23:01;;;;;;;6.23;4.93;;;;;;;;;;5119851;28;20214;-63
2023/06/18 00:25:30;;;;;;;6.23;5.10;;;;;;;;;;5122788;27;20622;-64
2023/06/18 00:27:58;;;;;;;7.23;5.13;;;;;;;;;;5121228;27;20626;-63
2023/06/18 00:30:28;;;;;;;6.77;5.90;;;;;;;;;;5122755;27;20565;-64
2023/06/18 00:33:13;;;;;;;6.97;5.60;;;;;;;;;;5122041;27;20218;-65
2023/06/18 00:35:59;;;;;;;7.43;5.90;;;;;;;;;;5120373;28;20334;-65
2023/06/18 00:38:28;;;;;;;7.00;5.80;;;;;;;;;;5119332;28;20199;-63
2023/06/18 00:41:13;;;;;;;6.83;5.40;;;;;;;;;;5119408;28;20239;-64
2023/06/18 00:43:42;;;;;;;8.23;6.27;;;;;;;;;;5121309;27;20193;-63
2023/06/18 00:46:30;;;;;;;6.70;5.63;;;;;;;;;;5120062;27;20295;-64
2023/06/18 00:49:18;;;;;;;7.57;5.97;;;;;;;;;;5122143;27;20284;-65
2023/06/18 00:51:47;;;;;;;9.07;5.97;;;;;;;;;;5119275;27;20203;-65
2023/06/18 00:54:16;;;;;;;11.37;6.03;;;;;;;;;;5121958;27;20292;-65
2023/06/18 00:56:50;;;;;;;6.87;5.57;;;;;;;;;;5120312;27;20229;-63
2023/06/18 00:59:37;;;;;;;10.20;5.83;;;;;;;;;;5122098;28;20233;-65
2023/06/18 01:02:25;;;;;;;7.23;6.03;;;;;;;;;;5120736;28;20229;-65
2023/06/18 01:05:01;;;;;;;7.80;5.70;;;;;;;;;;5121519;27;20263;-65
2023/06/18 01:07:48;;;;;;;5.83;5.30;;;;;;;;;;5119138;27;20221;-64
2023/06/18 01:10:20;;;;;;;9.60;5.87;;;;;;;;;;5121438;27;20222;-64
2023/06/18 01:13:08;;;;;;;7.23;6.07;;;;;;;;;;5116359;28;20205;-63
2023/06/18 01:15:41;;;;;;;7.00;5.87;;;;;;;;;;5115733;28;20254;-64
2023/06/18 01:18:29;;;;;;;7.83;5.67;;;;;;;;;;5107248;28;20286;-64
2023/06/18 01:21:18;;;;;;;6.43;5.80;;;;;;;;;;5118594;28;20703;-63
2023/06/18 01:23:57;;;;;;;7.57;6.17;;;;;;;;;;5117723;28;20242;-64
2023/06/18 01:26:26;;;;;;;5.70;5.20;;;;;;;;;;5117776;28;20277;-63
2023/06/18 01:28:58;;;;;;;8.17;6.03;;;;;;;;;;5118287;28;20208;-64
2023/06/18 01:31:34;;;;;;;6.53;5.67;;;;;;;;;;5118285;28;20715;-65
2023/06/18 01:34:21;;;;;;;8.33;5.57;;;;;;;;;;5118609;28;20297;-64
2023/06/18 01:37:10;;;;;;;5.70;5.20;;;;;;;;;;5118260;28;20245;-65
2023/06/18 01:40:00;;;;;;;6.60;5.03;;;;;;;;;;5118436;28;20582;-65
2023/06/18 01:42:31;;;;;;;7.17;5.40;;;;;;;;;;5118110;28;20293;-65
2023/06/18 01:45:04;;;;;;;7.63;5.57;;;;;;;;;;5117394;28;20298;-65
2023/06/18 01:47:33;;;;;;;8.03;5.67;;;;;;;;;;5118713;28;20285;-65
2023/06/18 01:50:04;;;;;;;6.53;5.30;;;;;;;;;;5115710;28;20267;-64
2023/06/18 01:52:35;;;;;;;6.73;5.83;;;;;;;;;;5110056;28;20217;-65
2023/06/18 01:55:21;;;;;;;9.27;6.40;;;;;;;;;;5118348;28;20777;-65
2023/06/18 01:57:49;;;;;;;6.70;5.90;;;;;;;;;;5117876;28;20206;-65
2023/06/18 02:00:18;;;;;;;6.90;5.60;;;;;;;;;;5118415;28;20232;-64
2023/06/18 02:02:47;;;;;;;8.30;5.40;;;;;;;;;;5118012;28;20204;-64
2023/06/18 02:05:17;;;;;;;5.10;4.60;;;;;;;;;;5118271;28;20240;-64
2023/06/18 02:07:46;;;;;;;6.20;4.80;;;;;;;;;;5118288;28;20212;-65
2023/06/18 02:10:14;;;;;;;5.30;4.80;;;;;;;;;;5118124;28;20231;-65
2023/06/18 02:12:48;;;;;;;7.83;5.00;;;;;;;;;;5114189;28;20588;-64
2023/06/18 02:15:16;;;;;;;9.33;4.90;;;;;;;;;;5117982;28;20245;-65
2023/06/18 02:17:47;;;;;;;4.93;4.40;;;;;;;;;;5116418;28;20218;-65
2023/06/18 02:20:17;;;;;;;12.00;4.80;;;;;;;;;;5117793;28;20279;-64
2023/06/18 02:22:49;;;;;;;6.87;4.77;;;;;;;;;;5118147;28;20202;-64
2023/06/18 02:25:19;;;;;;;6.37;5.00;;;;;;;;;;5120687;28;20222;-65
2023/06/18 02:27:52;;;;;;;6.63;5.40;;;;;;;;;;5121041;28;20282;-65
2023/06/18 02:30:38;;;;;;;5.73;4.57;;;;;;;;;;5121913;28;20196;-64
2023/06/18 02:33:23;;;;;;;7.63;4.90;;;;;;;;;;5122120;28;20281;-66
2023/06/18 02:35:54;;;;;;;5.10;4.60;;;;;;;;;;5121759;28;20217;-66
2023/06/18 02:38:22;;;;;;;5.83;5.03;;;;;;;;;;5121806;28;20212;-66
2023/06/18 02:41:07;;;;;;;6.40;5.10;;;;;;;;;;5121641;28;20634;-67
2023/06/18 02:43:36;;;;;;;8.27;5.03;;;;;;;;;;5121529;28;20211;-67
2023/06/18 02:46:04;;;;;;;5.80;4.50;;;;;;;;;;5121935;28;20231;-66
2023/06/18 02:48:32;;;;;;;5.33;4.73;;;;;;;;;;5121899;28;20209;-66
2023/06/18 02:51:02;;;;;;;5.07;4.60;;;;;;;;;;5121925;27;20202;-66
2023/06/18 02:53:30;;;;;;;5.83;4.43;;;;;;;;;;5121491;28;20234;-66
2023/06/18 02:55:58;;;;;;;4.70;4.30;;;;;;;;;;5121748;28;20233;-66
2023/06/18 02:58:28;;;;;;;5.37;4.87;;;;;;;;;;5121211;28;20252;-66
2023/06/18 03:00:57;;;;;;;5.77;4.77;;;;;;;;;;5121672;28;20686;-67
2023/06/18 03:03:27;;;;;;;5.53;4.73;;;;;;;;;;5121515;28;20612;-67
2023/06/18 03:05:55;;;;;;;5.17;4.63;;;;;;;;;;5121654;28;20238;-66
2023/06/18 03:08:25;;;;;;;6.23;4.07;;;;;;;;;;5121147;28;20216;-66
2023/06/18 03:10:53;;;;;;;5.17;4.67;;;;;;;;;;5121551;28;20201;-67
2023/06/18 03:13:21;;;;;;;5.10;4.27;;;;;;;;;;5121195;28;20207;-67
2023/06/18 03:15:50;;;;;;;5.60;4.60;;;;;;;;;;5121129;28;20292;-66
2023/06/18 03:18:18;;;;;;;6.07;4.80;;;;;;;;;;5121332;28;20320;-67
2023/06/18 03:20:46;;;;;;;5.23;4.40;;;;;;;;;;5121308;28;20231;-66
2023/06/18 03:23:14;;;;;;;8.33;4.47;;;;;;;;;;5121265;28;20216;-66
2023/06/18 03:25:44;;;;;;;4.73;4.17;;;;;;;;;;5120845;28;20221;-67
2023/06/18 03:28:12;;;;;;;5.33;4.20;;;;;;;;;;5120938;28;20204;-66
2023/06/18 03:30:41;;;;;;;4.87;4.37;;;;;;;;;;5120877;28;20208;-67
2023/06/18 03:33:10;;;;;;;6.67;4.90;;;;;;;;;;5120979;28;20211;-67
2023/06/18 03:35:38;;;;;;;6.40;5.03;;;;;;;;;;5120032;28;20231;-67
2023/06/18 03:38:06;;;;;;;6.20;4.47;;;;;;;;;;5120603;28;20242;-66
2023/06/18 03:40:34;;;;;;;4.70;4.30;;;;;;;;;;5120808;28;20211;-66
2023/06/18 03:43:04;;;;;;;6.67;4.37;;;;;;;;;;5120998;28;20291;-67
2023/06/18 03:45:32;;;;;;;5.83;4.37;;;;;;;;;;5120696;28;20233;-67
2023/06/18 03:48:00;;;;;;;7.13;4.80;;;;;;;;;;5120593;28;20205;-66
2023/06/18 03:50:29;;;;;;;6.43;4.47;;;;;;;;;;5120474;28;20206;-66
2023/06/18 03:52:57;;;;;;;7.03;4.87;;;;;;;;;;5109560;28;20281;-67
2023/06/18 03:55:25;;;;;;;5.27;4.77;;;;;;;;;;5120426;28;20653;-66
2023/06/18 03:57:53;;;;;;;5.63;4.93;;;;;;;;;;5120294;28;20213;-66
2023/06/18 04:00:23;;;;;;;5.87;5.27;;;;;;;;;;5120350;28;20222;-66
2023/06/18 04:02:52;;;;;;;5.93;5.33;;;;;;;;;;5120173;27;20226;-66
2023/06/18 04:05:20;;;;;;;7.27;5.27;;;;;;;;;;5120440;28;20268;-66
2023/06/18 04:07:48;;;;;;;9.97;5.27;;;;;;;;;;5120152;28;20554;-66
2023/06/18 04:10:16;;;;;;;5.83;4.97;;;;;;;;;;5120140;28;20204;-66
2023/06/18 04:12:44;;;;;;;5.93;5.37;;;;;;;;;;5120045;28;20211;-66
2023/06/18 04:15:12;;;;;;;8.20;5.10;;;;;;;;;;5120274;28;20223;-66
2023/06/18 04:17:43;;;;;;;5.93;5.00;;;;;;;;;;5120297;28;20210;-66
2023/06/18 04:20:12;;;;;;;9.50;5.47;;;;;;;;;;5120168;28;20231;-66
2023/06/18 04:22:40;;;;;;;5.77;5.00;;;;;;;;;;5119750;28;20230;-66
2023/06/18 04:25:26;;;;;;;6.47;4.80;;;;;;;;;;5119868;28;20232;-66
2023/06/18 04:27:54;;;;;;;5.23;4.73;;;;;;;;;;5108769;28;20289;-66
2023/06/18 04:30:22;;;;;;;6.00;4.87;;;;;;;;;;5120006;28;20213;-66
2023/06/18 04:32:52;;;;;;;7.47;5.27;;;;;;;;;;5119647;28;20204;-66
2023/06/18 04:35:20;;;;;;;6.37;5.77;;;;;;;;;;5119774;28;20229;-66
2023/06/18 04:37:48;;;;;;;6.33;5.73;;;;;;;;;;5119850;28;20201;-66
2023/06/18 04:40:18;;;;;;;5.50;5.00;;;;;;;;;;5119395;28;20208;-66
2023/06/18 04:42:46;;;;;;;5.60;5.10;;;;;;;;;;5119408;28;20236;-66
2023/06/18 04:45:15;;;;;;;6.13;5.37;;;;;;;;;;5119687;28;20312;-66
2023/06/18 04:47:43;;;;;;;6.13;5.53;;;;;;;;;;5119052;28;20296;-66
2023/06/18 04:50:12;;;;;;;6.20;5.60;;;;;;;;;;5119654;28;20205;-67
2023/06/18 04:52:41;;;;;;;5.73;4.87;;;;;;;;;;5119442;28;20621;-67
2023/06/18 04:55:09;;;;;;;11.33;5.77;;;;;;;;;;5118861;28;20240;-66
2023/06/18 04:57:40;;;;;;;5.97;5.40;;;;;;;;;;5119013;28;20637;-66
2023/06/18 05:00:09;;;;;;;6.43;5.40;;;;;;;;;;5119429;28;20207;-67
2023/06/18 05:02:37;;;;;;;5.73;5.10;;;;;;;;;;5119351;28;20226;-66
2023/06/18 05:05:06;;;;;;;6.77;5.77;;;;;;;;;;5118933;28;20205;-66
2023/06/18 05:07:35;;;;;;;6.33;5.73;;;;;;;;;;5119185;27;20221;-66
2023/06/18 05:10:04;;;;;;;6.00;5.40;;;;;;;;;;5118813;28;20707;-66
2023/06/18 05:12:32;;;;;;;6.23;5.63;;;;;;;;;;5118901;28;20209;-67
2023/06/18 05:15:00;;;;;;;6.53;5.47;;;;;;;;;;5118750;28;20292;-66
2023/06/18 05:17:28;;;;;;;6.83;6.13;;;;;;;;;;5119165;28;20244;-67
2023/06/18 05:19:57;;;;;;;5.63;5.00;;;;;;;;;;5119079;28;20296;-67
2023/06/18 05:22:25;;;;;;;6.03;5.43;;;;;;;;;;5118673;28;20221;-66
2023/06/18 05:24:55;;;;;;;6.87;5.87;;;;;;;;;;5105050;28;20303;-67
2023/06/18 05:27:23;;;;;;;8.00;5.20;;;;;;;;;;5118578;28;20292;-65
2023/06/18 05:29:51;;;;;;;7.47;5.90;;;;;;;;;;5118894;28;20292;-65
2023/06/18 05:32:19;;;;;;;8.37;6.80;;;;;;;;;;5118573;28;20207;-64
2023/06/18 05:34:48;;;;;;;9.00;6.10;;;;;;;;;;5118876;27;20203;-64
2023/06/18 05:37:17;;;;;;;7.70;6.10;;;;;;;;;;5119744;28;20222;-65
2023/06/18 05:39:45;;;;;;;6.67;5.70;;;;;;;;;;5117939;28;20196;-65
2023/06/18 05:42:15;;;;;;;8.07;6.43;;;;;;;;;;5119083;27;20234;-65
2023/06/18 05:44:43;;;;;;;8.67;5.77;;;;;;;;;;5118533;28;20644;-65
2023/06/18 05:47:11;;;;;;;5.90;5.40;;;;;;;;;;5118293;28;20586;-65
2023/06/18 05:49:39;;;;;;;7.13;5.60;;;;;;;;;;5118752;28;20214;-65
2023/06/18 05:52:07;;;;;;;7.10;6.17;;;;;;;;;;5118304;28;20675;-65
2023/06/18 05:54:36;;;;;;;6.20;5.53;;;;;;;;;;5106416;28;20242;-65
2023/06/18 05:57:05;;;;;;;6.17;5.57;;;;;;;;;;5118314;28;20238;-65
2023/06/18 05:59:34;;;;;;;8.13;5.63;;;;;;;;;;5117646;28;20203;-65
2023/06/18 06:02:02;;;;;;;7.93;6.30;;;;;;;;;;5118153;28;20654;-64
2023/06/18 06:04:30;;;;;;;7.20;5.30;;;;;;;;;;5118049;28;20677;-65
2023/06/18 06:06:59;;;;;;;8.33;6.00;;;;;;;;;;5118016;28;20311;-65
2023/06/18 06:09:27;;;;;;;8.30;6.70;;;;;;;;;;5117988;28;20298;-64
2023/06/18 06:11:55;;;;;;;7.67;5.40;;;;;;;;;;5118707;28;20208;-64
2023/06/18 06:14:23;;;;;;;7.27;6.50;;;;;;;;;;5118080;28;20211;-64
2023/06/18 06:16:57;;;;;;;6.80;6.10;;;;;;;;;;5117975;28;20627;-64
2023/06/18 06:19:25;;;;;;;6.97;6.27;;;;;;;;;;5118278;28;20208;-64
2023/06/18 06:21:53;;;;;;;7.97;6.40;;;;;;;;;;5118363;28;20221;-64
2023/06/18 06:24:21;;;;;;;6.97;5.57;;;;;;;;;;5118080;28;20227;-64
2023/06/18 06:26:49;;;;;;;6.43;5.90;;;;;;;;;;5118030;28;20650;-64
2023/06/18 06:29:18;;;;;;;6.40;5.80;;;;;;;;;;5118003;28;20214;-64
2023/06/18 06:31:49;;;;;;;6.70;6.10;;;;;;;;;;5117823;28;20305;-64
2023/06/18 06:34:19;;;;;;;5.80;5.30;;;;;;;;;;5118215;28;20237;-64
2023/06/18 06:36:48;;;;;;;6.23;5.50;;;;;;;;;;5117690;28;20719;-65
2023/06/18 06:39:18;;;;;;;6.57;5.43;;;;;;;;;;5117786;28;20205;-64
2023/06/18 06:41:46;;;;;;;6.07;5.13;;;;;;;;;;5118062;28;20215;-64
2023/06/18 06:44:16;;;;;;;6.83;5.47;;;;;;;;;;5117339;28;20258;-64
2023/06/18 06:46:44;;;;;;;6.20;5.70;;;;;;;;;;5117638;28;20577;-64
2023/06/18 06:49:13;;;;;;;7.57;5.20;;;;;;;;;;5118097;28;20205;-64
2023/06/18 06:51:42;;;;;;;7.07;5.40;;;;;;;;;;5117966;28;20214;-64
2023/06/18 06:54:11;;;;;;;6.70;5.03;;;;;;;;;;5116399;28;20572;-64
2023/06/18 06:56:39;;;;;;;6.13;4.87;;;;;;;;;;5117467;28;20235;-65
2023/06/18 06:59:07;;;;;;;6.57;4.83;;;;;;;;;;5116674;28;20237;-65
2023/06/18 07:01:35;;;;;;;6.57;5.30;;;;;;;;;;5107295;28;20201;-64
2023/06/18 07:04:04;;;;;;;6.37;5.00;;;;;;;;;;5103080;28;20258;-64
2023/06/18 07:06:32;;;;;;;6.23;5.30;;;;;;;;;;5118773;28;20700;-64
2023/06/18 07:09:03;;;;;;;5.73;5.10;;;;;;;;;;5117483;28;20210;-69
2023/06/18 07:11:31;;;;;;;5.60;5.10;;;;;;;;;;5118638;28;20207;-69
2023/06/18 07:13:59;;;;;;;8.03;5.40;;;;;;;;;;5120796;28;20198;-70
2023/06/18 07:16:28;;;;;;;5.77;5.20;;;;;;;;;;5121103;28;20231;-70
2023/06/18 07:18:56;;;;;;;10.43;4.97;;;;;;;;;;5115208;28;20618;-70
2023/06/18 07:21:24;;;;;;;5.70;5.10;;;;;;;;;;5132240;27;20740;-70
2023/06/18 07:23:52;;;;;;;7.03;5.23;;;;;;;;;;5141196;27;20258;-68
2023/06/18 07:26:22;;;;;;;5.50;5.00;;;;;;;;;;5133562;27;20313;-70
2023/06/18 07:28:50;;;;;;;6.63;5.00;;;;;;;;;;5120775;28;20213;-69
2023/06/18 07:31:18;;;;;;;6.27;5.60;;;;;;;;;;5107940;27;20204;-70
2023/06/18 07:33:46;;;;;;;4.90;4.50;;;;;;;;;;5120943;28;20289;-70
2023/06/18 07:36:14;;;;;;;5.60;5.10;;;;;;;;;;5117443;27;20284;-69
2023/06/18 07:38:42;;;;;;;5.87;5.37;;;;;;;;;;5127189;27;20207;-69
2023/06/18 07:41:11;;;;;;;5.50;5.00;;;;;;;;;;5120563;28;20675;-70
2023/06/18 07:43:40;;;;;;;5.53;5.03;;;;;;;;;;5120296;28;20605;-70
2023/06/18 07:46:08;;;;;;;6.67;5.40;;;;;;;;;;5120356;28;20223;-71
2023/06/18 07:48:37;;;;;;;6.83;5.67;;;;;;;;;;5120400;27;20207;-70
2023/06/18 07:51:06;;;;;;;6.60;5.67;;;;;;;;;;5120374;28;20233;-71
2023/06/18 07:53:34;;;;;;;4.93;4.53;;;;;;;;;;5120255;28;20320;-70
2023/06/18 07:56:02;;;;;;;6.27;5.67;;;;;;;;;;5120617;28;20233;-70
2023/06/18 07:58:30;;;;;;;6.83;5.43;;;;;;;;;;5119987;28;20209;-70
2023/06/18 08:00:59;;;;;;;6.50;5.90;;;;;;;;;;5120517;28;20194;-70
2023/06/18 08:03:28;;;;;;;8.80;5.80;;;;;;;;;;5120243;28;20633;-71
2023/06/18 08:05:56;;;;;;;6.63;4.93;;;;;;;;;;5118254;28;20222;-70
2023/06/18 08:08:24;;;;;;;7.50;5.30;;;;;;;;;;5119023;28;20256;-70
2023/06/18 08:10:52;;;;;;;6.07;5.17;;;;;;;;;;5122370;27;20198;-70
2023/06/18 08:13:20;;;;;;;10.23;5.40;;;;;;;;;;5119962;28;20196;-70
2023/06/18 08:15:49;;;;;;;7.03;5.57;;;;;;;;;;5120466;27;20224;-70
2023/06/18 08:18:18;;;;;;;5.90;5.33;;;;;;;;;;5121762;27;20294;-70
2023/06/18 08:20:46;;;;;;;8.30;6.10;;;;;;;;;;5119582;27;20229;-70
2023/06/18 08:23:15;;;;;;;10.63;6.03;;;;;;;;;;5119827;28;20675;-70
2023/06/18 08:25:44;;;;;;;5.93;5.43;;;;;;;;;;5119916;28;20231;-70
2023/06/18 08:28:12;;;;;;;9.33;5.70;;;;;;;;;;5119614;28;20649;-71
2023/06/18 08:30:40;;;;;;;9.03;5.60;;;;;;;;;;5120084;28;20290;-71
2023/06/18 08:33:08;;;;;;;6.33;5.57;;;;;;;;;;5119203;28;20244;-71
2023/06/18 08:35:38;;;;;;;6.13;5.43;;;;;;;;;;5120619;27;20302;-71
2023/06/18 08:38:06;;;;;;;7.80;6.00;;;;;;;;;;5119419;28;20213;-70
2023/06/18 08:40:36;;;;;;;6.23;5.63;;;;;;;;;;5119860;27;20210;-70
2023/06/18 08:43:09;;;;;;;7.03;6.00;;;;;;;;;;5120277;27;20208;-71
2023/06/18 08:45:37;;;;;;;6.73;5.67;;;;;;;;;;5118176;28;20229;-70
2023/06/18 08:48:08;;;;;;;6.70;5.97;;;;;;;;;;5121060;27;20211;-70
2023/06/18 08:51:00;;;;;;;8.23;6.10;;;;;;;;;;5116701;28;20226;-71
2023/06/18 08:53:34;;;;;;;10.53;6.00;;;;;;;;;;5128552;27;20269;-71
2023/06/18 08:56:03;;;;;;;7.77;6.20;;;;;;;;;;5139957;27;20329;-71
2023/06/18 08:58:33;;;;;;;6.23;5.63;;;;;;;;;;5139444;27;20587;-72
2023/06/18 09:01:01;;;;;;;9.17;6.50;;;;;;;;;;5132253;27;20287;-67
2023/06/18 09:03:31;;;;;;;9.03;6.43;;;;;;;;;;5119726;27;20210;-67
2023/06/18 09:06:01;;;;;;;6.63;5.97;;;;;;;;;;5126218;27;20686;-67
2023/06/18 09:08:30;;;;;;;7.80;6.13;;;;;;;;;;5119394;27;20290;-67
2023/06/18 09:10:59;;;;;;;7.10;6.40;;;;;;;;;;5120176;27;20195;-67
2023/06/18 09:13:27;;;;;;;7.63;5.77;;;;;;;;;;5125503;27;20207;-67
2023/06/18 09:15:58;;;;;;;6.57;5.97;;;;;;;;;;5128082;27;20222;-67
2023/06/18 09:18:27;;;;;;;6.17;5.60;;;;;;;;;;5123902;27;20255;-67
2023/06/18 09:20:55;;;;;;;6.63;6.03;;;;;;;;;;5128153;27;20678;-66
2023/06/18 09:23:27;;;;;;;6.40;5.70;;;;;;;;;;5129440;27;20579;-67
2023/06/18 09:25:56;;;;;;;7.63;6.63;;;;;;;;;;5123399;27;20561;-67
2023/06/18 09:28:25;;;;;;;5.57;5.07;;;;;;;;;;5117875;28;20201;-67
2023/06/18 09:30:54;;;;;;;6.47;5.87;;;;;;;;;;5118483;28;20208;-67
2023/06/18 09:33:32;;;;;;;7.10;5.67;;;;;;;;;;5118317;28;20232;-67
2023/06/18 09:36:01;;;;;;;6.10;5.50;;;;;;;;;;5117588;28;20251;-67
2023/06/18 09:38:35;;;;;;;6.63;5.80;;;;;;;;;;5118257;28;20569;-67
2023/06/18 09:41:04;;;;;;;5.87;5.30;;;;;;;;;;5118696;28;20245;-67
2023/06/18 09:43:35;;;;;;;6.10;5.50;;;;;;;;;;5118084;28;20216;-67
2023/06/18 09:46:04;;;;;;;6.90;6.20;;;;;;;;;;5118345;28;20240;-67
2023/06/18 09:48:34;;;;;;;6.30;5.67;;;;;;;;;;5118303;27;20676;-68
2023/06/18 09:51:02;;;;;;;6.57;5.43;;;;;;;;;;5118107;28;20613;-67
2023/06/18 09:53:30;;;;;;;7.50;5.53;;;;;;;;;;5118132;28;20233;-67
2023/06/18 09:56:10;;;;;;;7.27;5.87;;;;;;;;;;5118212;28;20226;-67
2023/06/18 09:58:42;;;;;;;7.40;5.97;;;;;;;;;;5117973;28;20236;-67
2023/06/18 10:01:11;;;;;;;7.17;5.40;;;;;;;;;;5117993;28;20276;-67
2023/06/18 10:03:39;;;;;;;7.60;5.80;;;;;;;;;;5105441;28;20212;-67
2023/06/18 10:06:12;;;;;;;6.10;5.50;;;;;;;;;;5109257;28;20312;-67
2023/06/18 10:08:42;;;;;;;5.37;4.97;;;;;;;;;;5117400;28;20561;-67
2023/06/18 10:11:12;;;;;;;6.17;5.57;;;;;;;;;;5118114;28;20202;-67
2023/06/18 10:13:43;;;;;;;8.30;5.60;;;;;;;;;;5117760;28;20209;-69
2023/06/18 10:16:13;;;;;;;6.53;4.93;;;;;;;;;;5117818;28;20260;-68
2023/06/18 10:18:45;;;;;;;6.77;5.73;;;;;;;;;;5120179;28;20216;-69
2023/06/18 10:21:14;;;;;;;7.57;6.00;;;;;;;;;;5119137;27;20599;-66
2023/06/18 10:23:43;;;;;;;6.37;5.87;;;;;;;;;;5106874;28;20198;-67
2023/06/18 10:26:12;;;;;;;7.13;5.43;;;;;;;;;;5108261;28;20236;-68
2023/06/18 10:28:41;;;;;;;7.60;5.97;;;;;;;;;;5117586;28;20201;-65
2023/06/18 10:31:09;;;;;;;8.17;5.83;;;;;;;;;;5117811;28;20213;-67
2023/06/18 10:33:37;;;;;;;7.87;5.60;;;;;;;;;;5117488;28;20671;-66
2023/06/18 10:36:06;;;;;;;7.50;5.63;;;;;;;;;;5117744;28;20223;-67
2023/06/18 10:38:35;;;;;;;10.43;6.20;;;;;;;;;;5114673;28;20656;-67
2023/06/18 10:41:08;;;;;;;7.20;5.90;;;;;;;;;;5117115;28;20551;-70
2023/06/18 10:43:41;;;;;;;9.33;7.03;;;;;;;;;;5104668;28;20208;-66
2023/06/18 10:46:10;;;;;;;8.13;5.60;;;;;;;;;;5119981;28;20238;-69
2023/06/18 10:48:38;;;;;;;6.67;5.33;;;;;;;;;;5121413;28;20217;-69
2023/06/18 10:51:17;;;;;;;5.87;5.27;;;;;;;;;;5121533;28;20211;-66
2023/06/18 10:53:45;;;;;;;6.20;5.37;;;;;;;;;;5121189;28;20321;-70
2023/06/18 10:56:15;;;;;;;6.30;5.20;;;;;;;;;;5123062;27;20696;-67
2023/06/18 10:58:45;;;;;;;6.27;5.40;;;;;;;;;;5142367;27;20211;-67
2023/06/18 11:01:26;;;;;;;7.23;5.07;;;;;;;;;;5124678;27;20637;-66
2023/06/18 11:04:02;;;;;;;6.97;5.23;;;;;;;;;;5119911;28;20199;-67
2023/06/18 11:06:30;;;;;;;5.57;5.00;;;;;;;;;;5119459;27;20228;-66
2023/06/18 11:08:58;;;;;;;5.00;4.50;;;;;;;;;;5122330;27;20207;-66
2023/06/18 11:11:27;;;;;;;5.23;4.47;;;;;;;;;;5121079;28;20224;-64
2023/06/18 11:13:56;;;;;;;8.07;5.03;;;;;;;;;;5120764;28;20215;-65
2023/06/18 11:16:24;;;;;;;5.50;5.00;;;;;;;;;;5120776;28;20759;-66
2023/06/18 11:18:57;;;;;;;5.83;4.30;;;;;;;;;;5113975;28;20207;-69
2023/06/18 11:21:25;;;;;;;5.73;4.17;;;;;;;;;;5120637;27;20233;-66
2023/06/18 11:23:55;;;;;;;5.07;4.57;;;;;;;;;;5120652;28;20297;-68
2023/06/18 11:26:24;;;;;;;5.60;4.57;;;;;;;;;;5120741;28;20226;-69
2023/06/18 11:28:52;;;;;;;7.23;4.80;;;;;;;;;;5120620;28;20238;-68
2023/06/18 11:31:22;;;;;;;5.17;4.67;;;;;;;;;;5120251;28;20208;-70
2023/06/18 11:33:50;;;;;;;6.60;4.67;;;;;;;;;;5120496;28;20288;-71
2023/06/18 11:36:19;;;;;;;6.53;4.33;;;;;;;;;;5117267;28;20227;-70
2023/06/18 11:38:48;;;;;;;5.30;4.80;;;;;;;;;;5114656;28;20211;-71
2023/06/18 11:41:20;;;;;;;5.87;5.23;;;;;;;;;;5120611;28;20214;-70
2023/06/18 11:43:50;;;;;;;5.63;5.20;;;;;;;;;;5120090;28;20228;-71
2023/06/18 11:46:29;;;;;;;4.90;4.50;;;;;;;;;;5120170;28;20226;-68
2023/06/18 11:48:59;;;;;;;5.40;4.90;;;;;;;;;;5120453;28;20207;-70
2023/06/18 11:51:28;;;;;;;5.00;4.60;;;;;;;;;;5128522;27;20212;-69
2023/06/18 11:53:56;;;;;;;5.47;4.60;;;;;;;;;;5117197;28;20770;-69
2023/06/18 11:56:26;;;;;;;5.80;4.43;;;;;;;;;;5117375;28;20224;-71
2023/06/18 11:58:55;;;;;;;4.60;4.17;;;;;;;;;;5119806;28;20609;-71
2023/06/18 12:01:26;;;;;;;5.63;4.97;;;;;;;;;;5119981;28;20650;-70
2023/06/18 12:04:03;;;;;;;6.97;4.80;;;;;;;;;;5120113;28;20209;-69
2023/06/18 12:06:31;;;;;;;7.60;5.00;;;;;;;;;;5120108;28;20354;-70
2023/06/18 12:09:04;;;;;;;4.93;4.30;;;;;;;;;;5119898;27;20202;-71
2023/06/18 12:11:37;;;;;;;4.20;3.90;;;;;;;;;;5115955;28;20625;-70
2023/06/18 12:14:07;;;;;;;5.10;4.10;;;;;;;;;;5119656;28;20212;-68
2023/06/18 12:16:38;;;;;;;10.40;4.37;;;;;;;;;;5119812;28;20230;-67
2023/06/18 12:19:11;;;;;;;5.63;4.43;;;;;;;;;;5121227;27;20204;-66
2023/06/18 12:21:39;;;;;;;7.07;3.90;;;;;;;;;;5119490;28;20273;-67
2023/06/18 12:24:07;;;;;;;7.10;4.30;;;;;;;;;;5121906;27;20213;-67
2023/06/18 12:26:35;;;;;;;5.40;4.40;;;;;;;;;;5120307;27;20228;-67
2023/06/18 12:29:06;;;;;;;5.63;4.67;;;;;;;;;;5120764;27;20196;-70
2023/06/18 12:31:34;;;;;;;5.45;4.25;;;;;;;;;;5119755;28;20722;-67
2023/06/18 12:34:02;;;;;;;5.63;4.25;;;;;;;;;;5119776;28;20208;-66
2023/06/18 12:36:32;;;;;;;7.15;5.22;;;;;;;;;;5119477;28;20284;-72
2023/06/18 12:39:00;;;;;;;5.65;4.05;;;;;;;;;;5119463;28;20211;-72
2023/06/18 12:41:29;;;;;;;5.18;4.20;;;;;;;;;;5119595;28;20223;-70
2023/06/18 12:50:45;;;;;;;6.23;4.23;;;;;;;;;;5019062;28;20233;-71
2023/06/18 12:53:20;;;;;;;4.93;4.17;;;;;;;;;;5040481;28;20261;-71
2023/06/18 12:55:50;;;;;;;6.68;5.22;;;;;;;;;;5037887;28;20191;-71
2023/06/18 12:58:25;;;;;;;6.88;3.95;;;;;;;;;;5052940;28;20226;-71
2023/06/18 13:00:54;;;;;;;5.55;4.97;;;;;;;;;;5058476;28;20220;-71
2023/06/18 13:03:24;;;;;;;6.78;4.55;;;;;;;;;;5057551;28;20623;-71
2023/06/18 13:05:52;;;;;;;5.45;4.65;;;;;;;;;;5058247;28;20274;-72
2023/06/18 13:08:22;;;;;;;4.80;4.40;;;;;;;;;;5060634;28;20229;-72
2023/06/18 13:10:51;;;;;;;6.95;5.20;;;;;;;;;;5058141;28;20208;-72
2023/06/18 13:13:19;;;;;;;16.17;5.70;;;;;;;;;;5058538;28;20272;-72
2023/06/18 13:15:48;;;;;;;5.95;5.35;;;;;;;;;;5058290;28;20576;-72
2023/06/18 13:18:17;;;;;;;6.88;5.43;;;;;;;;;;5058070;28;20323;-72
2023/06/18 13:20:46;;;;;;;7.97;5.65;;;;;;;;;;5054115;28;20263;-71
2023/06/18 13:23:15;;;;;;;7.32;6.63;;;;;;;;;;5052309;28;20267;-71
2023/06/18 13:25:45;;;;;;;8.43;6.35;;;;;;;;;;5070181;28;20628;-71
2023/06/18 13:28:13;;;;;;;8.35;6.13;;;;;;;;;;5058205;28;20226;-71
2023/06/18 13:30:41;;;;;;;7.78;5.85;;;;;;;;;;5058089;28;20634;-71
2023/06/18 13:33:09;;;;;;;7.78;6.30;;;;;;;;;;5057943;28;20213;-71
2023/06/18 13:35:38;;;;;;;8.38;5.85;;;;;;;;;;5057603;28;20668;-71
2023/06/18 13:38:08;;;;;;;11.88;6.00;;;;;;;;;;5058019;28;20227;-71
2023/06/18 13:40:36;;;;;;;11.23;6.97;;;;;;;;;;5058011;28;20737;-71
2023/06/18 13:43:05;;;;;;;9.50;6.03;;;;;;;;;;5058066;28;20202;-71
2023/06/18 13:45:33;;;;;;;7.97;6.03;;;;;;;;;;5057779;28;20237;-71
2023/06/18 13:48:01;;;;;;;6.03;5.45;;;;;;;;;;5057283;28;20240;-71
2023/06/18 13:50:29;;;;;;;6.22;5.63;;;;;;;;;;5046772;28;20239;-71
2023/06/18 13:52:57;;;;;;;6.32;5.53;;;;;;;;;;5037784;28;20214;-71
2023/06/18 13:55:25;;;;;;;9.50;5.60;;;;;;;;;;5037782;28;20289;-71
2023/06/18 13:57:53;;;;;;;7.15;6.03;;;;;;;;;;5041146;28;20253;-71
2023/06/18 14:00:22;;;;;;;7.00;6.30;;;;;;;;;;5045676;28;20206;-71
2023/06/18 14:02:50;;;;;;;9.20;6.30;;;;;;;;;;5037406;28;20206;-71
2023/06/18 14:05:19;;;;;;;5.50;5.05;;;;;;;;;;5037210;28;20207;-71
2023/06/18 14:07:48;;;;;;;7.13;5.85;;;;;;;;;;5037622;28;20245;-71
2023/06/18 14:10:16;;;;;;;5.82;5.22;;;;;;;;;;5037586;28;20249;-71
2023/06/18 14:12:44;;;;;;;9.30;5.50;;;;;;;;;;5037726;28;20207;-71
2023/06/18 14:15:13;;;;;;;5.93;5.32;;;;;;;;;;5037815;28;20205;-71
2023/06/18 14:17:46;;;;;;;7.20;5.88;;;;;;;;;;5037394;28;20250;-71
2023/06/18 14:20:15;;;;;;;7.50;5.30;;;;;;;;;;5038502;28;20219;-71
2023/06/18 14:22:44;;;;;;;8.98;5.28;;;;;;;;;;5041718;28;20290;-71
2023/06/18 14:25:12;;;;;;;5.40;4.85;;;;;;;;;;5041805;28;20210;-71
2023/06/18 14:27:41;;;;;;;7.22;6.22;;;;;;;;;;5041238;28;20598;-71
2023/06/18 14:30:09;;;;;;;6.13;5.53;;;;;;;;;;5041669;28;20211;-71
2023/06/18 14:32:40;;;;;;;7.05;5.60;;;;;;;;;;5039778;28;20249;-71
2023/06/18 14:35:10;;;;;;;5.95;5.30;;;;;;;;;;5039550;28;20684;-71
2023/06/18 14:37:38;;;;;;;5.78;5.18;;;;;;;;;;5041170;28;20226;-71
2023/06/18 14:40:06;;;;;;;6.22;5.05;;;;;;;;;;5040993;28;20651;-71
2023/06/18 14:42:34;;;;;;;7.82;5.95;;;;;;;;;;5040973;28;20253;-71
2023/06/18 14:45:02;;;;;;;6.65;5.00;;;;;;;;;;5041174;28;20211;-71
2023/06/18 14:47:30;;;;;;;6.28;5.60;;;;;;;;;;5040862;28;20760;-71
2023/06/18 14:49:58;;;;;;;5.78;5.15;;;;;;;;;;5040492;28;20321;-71
2023/06/18 14:52:27;;;;;;;7.80;5.25;;;;;;;;;;5041135;28;20231;-71
2023/06/18 14:54:55;;;;;;;7.40;4.90;;;;;;;;;;5041007;28;20203;-71
2023/06/18 14:57:23;;;;;;;5.93;4.90;;;;;;;;;;5040619;28;20666;-71
2023/06/18 14:59:53;;;;;;;5.97;4.90;;;;;;;;;;5038270;28;20568;-71
2023/06/18 15:02:21;;;;;;;8.05;4.75;;;;;;;;;;5040398;28;20699;-71
2023/06/18 15:04:57;;;;;;;8.10;4.90;;;;;;;;;;5040444;28;20207;-71
2023/06/18 15:07:27;;;;;;;5.20;4.70;;;;;;;;;;5040587;28;20352;-72
2023/06/18 15:09:55;;;;;;;5.63;5.00;;;;;;;;;;5040923;28;20253;-72